createdAt,value
2024-03-28T00:01:59.255Z,6.57
2024-03-28T00:04:32.966Z,6.55
2024-03-28T00:07:06.355Z,6.53
2024-03-28T00:09:39.524Z,6.51
2024-03-28T00:12:13.342Z,6.48
2024-03-28T00:14:46.100Z,6.46
2024-03-28T00:17:18.995Z,6.43
2024-03-28T00:19:51.917Z,6.41
2024-03-28T00:22:25.344Z,6.39
2024-03-28T00:24:58.131Z,6.36
2024-03-28T00:27:30.877Z,6.33
2024-03-28T00:30:04.278Z,6.31
2024-03-28T00:32:37.042Z,6.30
2024-03-28T00:35:11.856Z,6.28
2024-03-28T00:37:44.655Z,6.27
2024-03-28T00:40:17.938Z,6.24
2024-03-28T00:42:51.037Z,6.21
2024-03-28T00:45:23.842Z,6.18
2024-03-28T00:47:56.720Z,6.16
2024-03-28T00:50:29.532Z,6.14
2024-03-28T00:53:02.346Z,6.10
2024-03-28T00:55:37.037Z,6.04
2024-03-28T00:58:09.984Z,6.00
2024-03-28T01:00:43.253Z,5.96
2024-03-28T01:03:16.667Z,5.93
2024-03-28T01:05:59.266Z,5.90
2024-03-28T01:08:32.008Z,5.86
2024-03-28T01:11:04.958Z,5.84
2024-03-28T01:13:38.906Z,5.83
2024-03-28T01:16:12.574Z,5.83
2024-03-28T01:18:45.592Z,5.83
2024-03-28T01:21:18.623Z,5.84
2024-03-28T01:23:51.522Z,5.86
2024-03-28T01:26:24.900Z,5.87
2024-03-28T01:28:58.218Z,5.87
2024-03-28T01:31:30.975Z,5.87
2024-03-28T01:34:03.943Z,5.87
2024-03-28T01:36:36.791Z,5.85
2024-03-28T01:39:09.572Z,5.83
2024-03-28T01:41:42.653Z,5.82
2024-03-28T01:44:15.986Z,5.80
2024-03-28T01:46:56.352Z,5.78
2024-03-28T01:49:42.744Z,5.76
2024-03-28T01:52:16.567Z,5.75
2024-03-28T01:54:49.839Z,5.72
2024-03-28T01:57:24.355Z,5.70
2024-03-28T01:59:57.525Z,5.69
2024-03-28T02:02:31.484Z,5.68
2024-03-28T02:05:04.190Z,5.67
2024-03-28T02:07:37.413Z,5.63
2024-03-28T02:10:12.476Z,5.61
2024-03-28T02:12:45.569Z,5.61
2024-03-28T02:15:18.437Z,5.60
2024-03-28T02:17:52.071Z,5.59
2024-03-28T02:20:24.994Z,5.58
2024-03-28T02:22:57.787Z,5.56
2024-03-28T02:25:30.771Z,5.54
2024-03-28T02:28:04.332Z,5.52
2024-03-28T02:30:37.562Z,5.50
2024-03-28T02:33:10.326Z,5.47
2024-03-28T02:35:44.158Z,5.46
2024-03-28T02:38:16.783Z,5.44
2024-03-28T02:40:52.270Z,5.41
2024-03-28T02:43:25.596Z,5.40
2024-03-28T02:45:58.542Z,5.40
2024-03-28T02:48:31.439Z,5.39
2024-03-28T02:51:04.207Z,5.39
2024-03-28T02:53:37.177Z,5.40
2024-03-28T02:56:10.913Z,5.41
2024-03-28T02:58:43.792Z,5.40
2024-03-28T03:01:16.577Z,5.37
2024-03-28T03:03:49.280Z,5.35
2024-03-28T03:06:22.089Z,5.35
2024-03-28T03:08:55.086Z,5.35
2024-03-28T03:11:27.985Z,5.33
2024-03-28T03:14:00.773Z,5.33
2024-03-28T03:16:33.566Z,5.33
2024-03-28T03:19:06.370Z,5.35
2024-03-28T03:21:39.230Z,5.37
2024-03-28T03:24:14.571Z,5.41
2024-03-28T03:26:51.840Z,5.44
2024-03-28T03:29:42.501Z,5.48
2024-03-28T03:32:29.436Z,5.52
2024-03-28T03:35:02.082Z,5.56
2024-03-28T03:37:35.492Z,5.60
2024-03-28T03:40:11.367Z,5.68
2024-03-28T03:42:44.575Z,5.75
2024-03-28T03:45:17.418Z,5.83
2024-03-28T03:47:50.292Z,5.92
2024-03-28T03:50:23.095Z,6.00
2024-03-28T03:52:56.273Z,6.10
2024-03-28T03:55:29.205Z,6.18
2024-03-28T03:58:02.439Z,6.23
2024-03-28T04:00:35.549Z,6.30
2024-03-28T04:03:08.698Z,6.38
2024-03-28T04:05:41.676Z,6.45
2024-03-28T04:08:14.845Z,6.51
2024-03-28T04:10:47.835Z,6.58
2024-03-28T04:13:20.777Z,6.67
2024-03-28T04:15:54.027Z,6.78
2024-03-28T04:18:28.071Z,6.88
2024-03-28T04:21:01.463Z,7.02
2024-03-28T04:23:34.534Z,7.67
2024-03-28T04:26:07.457Z,9.94
2024-03-28T04:28:40.673Z,12.99
2024-03-28T04:31:13.506Z,15.83
2024-03-28T04:33:46.353Z,18.36
2024-03-28T04:36:20.608Z,20.69
2024-03-28T04:38:54.275Z,22.94
2024-03-28T04:41:29.881Z,24.97
2024-03-28T04:44:02.614Z,26.81
2024-03-28T04:46:35.468Z,28.43
2024-03-28T04:49:08.262Z,29.91
2024-03-28T04:51:41.039Z,31.28
2024-03-28T04:54:13.738Z,32.62
2024-03-28T04:56:46.855Z,33.86
2024-03-28T04:59:19.765Z,34.88
2024-03-28T05:01:53.536Z,35.86
2024-03-28T05:04:26.510Z,36.63
2024-03-28T05:06:59.803Z,37.48
2024-03-28T05:09:33.186Z,38.26
2024-03-28T05:12:06.587Z,39.14
2024-03-28T05:14:39.695Z,39.99
2024-03-28T05:17:13.143Z,40.68
2024-03-28T05:19:46.185Z,41.37
2024-03-28T05:22:19.165Z,42.00
2024-03-28T05:24:52.029Z,42.55
2024-03-28T05:27:27.502Z,42.99
2024-03-28T05:30:01.764Z,43.42
2024-03-28T05:32:34.926Z,43.72
2024-03-28T05:35:10.082Z,43.93
2024-03-28T05:37:43.002Z,44.36
2024-03-28T05:40:16.123Z,44.77
2024-03-28T05:42:49.293Z,45.17
2024-03-28T05:45:22.307Z,45.55
2024-03-28T05:47:55.409Z,45.87
2024-03-28T05:50:29.016Z,46.03
2024-03-28T05:53:02.258Z,46.25
2024-03-28T05:55:36.820Z,46.59
2024-03-28T05:58:09.948Z,46.90
2024-03-28T06:00:43.125Z,47.01
2024-03-28T06:03:16.492Z,47.05
2024-03-28T06:05:49.583Z,47.13
2024-03-28T06:08:22.711Z,47.13
2024-03-28T06:10:55.968Z,47.20
2024-03-28T06:13:32.670Z,47.33
2024-03-28T06:16:06.898Z,47.48
2024-03-28T06:18:40.338Z,47.70
2024-03-28T06:21:11.285Z,47.98
2024-03-28T06:23:44.418Z,48.17
2024-03-28T06:26:15.681Z,48.25
2024-03-28T06:28:49.498Z,48.35
2024-03-28T06:31:23.627Z,48.60
2024-03-28T06:33:57.376Z,49.06
2024-03-28T06:36:30.257Z,49.27
2024-03-28T06:39:01.489Z,49.42
2024-03-28T06:41:34.334Z,49.36
2024-03-28T06:44:05.500Z,49.41
2024-03-28T06:46:38.295Z,49.23
2024-03-28T06:49:11.270Z,49.49
2024-03-28T06:51:43.918Z,49.72
2024-03-28T06:54:15.046Z,49.77
2024-03-28T06:56:49.221Z,49.68
2024-03-28T06:59:22.313Z,49.23
2024-03-28T07:01:56.121Z,48.41
2024-03-28T07:04:29.106Z,47.68
2024-03-28T07:07:00.368Z,47.06
2024-03-28T07:09:33.303Z,46.61
2024-03-28T07:12:07.362Z,46.63
2024-03-28T07:14:40.237Z,46.89
2024-03-28T07:17:13.270Z,47.36
2024-03-28T07:19:46.805Z,47.84
2024-03-28T07:22:19.906Z,48.21
2024-03-28T07:24:53.005Z,48.49
2024-03-28T07:27:26.021Z,48.63
2024-03-28T07:29:57.157Z,48.85
2024-03-28T07:32:30.201Z,49.06
2024-03-28T07:35:01.160Z,49.24
2024-03-28T07:37:34.044Z,49.17
2024-03-28T07:40:11.110Z,49.21
2024-03-28T07:42:43.855Z,49.28
2024-03-28T07:45:18.271Z,49.33
2024-03-28T07:47:51.302Z,49.34
2024-03-28T07:50:22.458Z,49.24
2024-03-28T07:52:55.309Z,49.04
2024-03-28T07:55:28.198Z,48.97
2024-03-28T07:58:00.899Z,49.01
2024-03-28T08:00:33.848Z,48.91
2024-03-28T08:03:07.262Z,48.99
2024-03-28T08:05:40.832Z,48.98
2024-03-28T08:08:13.576Z,48.98
2024-03-28T08:10:46.311Z,48.85
2024-03-28T08:13:19.268Z,47.85
2024-03-28T08:15:52.120Z,44.97
2024-03-28T08:18:25.394Z,41.86
2024-03-28T08:20:58.792Z,39.01
2024-03-28T08:23:31.824Z,36.63
2024-03-28T08:26:07.363Z,34.53
2024-03-28T08:28:44.711Z,32.72
2024-03-28T08:31:17.577Z,30.98
2024-03-28T08:33:53.349Z,29.05
2024-03-28T08:36:26.274Z,27.56
2024-03-28T08:38:59.743Z,26.50
2024-03-28T08:41:32.441Z,25.62
2024-03-28T08:44:05.459Z,24.87
2024-03-28T08:46:42.268Z,24.18
2024-03-28T08:49:16.090Z,23.50
2024-03-28T08:51:49.977Z,22.92
2024-03-28T08:54:25.458Z,22.51
2024-03-28T08:56:58.555Z,22.22
2024-03-28T08:59:31.377Z,21.97
2024-03-28T09:02:05.935Z,21.66
2024-03-28T09:04:40.407Z,21.21
2024-03-28T09:07:13.334Z,20.74
2024-03-28T09:09:48.799Z,20.41
2024-03-28T09:12:22.978Z,20.12
2024-03-28T09:14:59.112Z,19.85
2024-03-28T09:17:32.349Z,19.48
2024-03-28T09:20:07.023Z,19.30
2024-03-28T09:22:40.064Z,19.24
2024-03-28T09:25:13.945Z,19.16
2024-03-28T09:27:46.816Z,19.12
2024-03-28T09:30:22.291Z,19.08
2024-03-28T09:32:56.281Z,19.03
2024-03-28T09:35:29.289Z,18.98
2024-03-28T09:38:03.400Z,18.98
2024-03-28T09:40:41.734Z,19.09
2024-03-28T09:43:14.893Z,19.22
2024-03-28T09:45:49.710Z,19.34
2024-03-28T09:48:23.042Z,19.43
2024-03-28T09:50:56.856Z,19.47
2024-03-28T09:53:31.812Z,19.50
2024-03-28T09:56:04.897Z,19.53
2024-03-28T09:58:39.924Z,19.55
2024-03-28T10:01:12.989Z,19.63
2024-03-28T10:03:47.989Z,19.68
2024-03-28T10:06:20.714Z,19.69
2024-03-28T10:08:54.939Z,19.71
2024-03-28T10:11:27.868Z,19.76
2024-03-28T10:14:00.600Z,19.84
2024-03-28T10:16:33.362Z,19.90
2024-03-28T10:19:06.447Z,19.93
2024-03-28T10:21:39.784Z,19.93
2024-03-28T10:24:20.994Z,20.00
2024-03-28T10:26:54.688Z,20.05
2024-03-28T10:29:30.828Z,20.10
2024-03-28T10:32:10.009Z,20.15
2024-03-28T10:34:49.769Z,20.21
2024-03-28T10:37:27.195Z,20.29
2024-03-28T10:40:02.744Z,20.34
2024-03-28T10:42:36.731Z,20.39
2024-03-28T10:45:12.072Z,20.43
2024-03-28T10:47:45.099Z,20.47
2024-03-28T10:50:23.747Z,20.53
2024-03-28T10:52:59.483Z,20.58
2024-03-28T10:55:37.892Z,20.64
2024-03-28T10:58:11.833Z,20.71
2024-03-28T11:00:45.433Z,20.75
2024-03-28T11:03:19.446Z,20.80
2024-03-28T11:05:52.858Z,20.87
2024-03-28T11:08:25.860Z,20.91
2024-03-28T11:11:01.088Z,20.97
2024-03-28T11:13:34.084Z,21.02
2024-03-28T11:16:08.859Z,21.10
2024-03-28T11:18:43.814Z,21.14
2024-03-28T11:21:26.814Z,21.19
2024-03-28T11:23:59.707Z,21.17
2024-03-28T11:26:33.224Z,21.16
2024-03-28T11:29:07.129Z,21.15
2024-03-28T11:31:44.183Z,21.18
2024-03-28T11:34:29.293Z,21.25
2024-03-28T11:37:02.139Z,21.33
2024-03-28T11:39:35.696Z,21.39
2024-03-28T11:42:32.420Z,21.42
2024-03-28T11:45:14.504Z,21.49
2024-03-28T11:47:51.989Z,21.55
2024-03-28T11:50:27.966Z,21.67
2024-03-28T11:53:09.588Z,21.80
2024-03-28T11:55:44.539Z,21.94
2024-03-28T11:58:22.193Z,22.05
2024-03-28T12:01:01.686Z,22.18
2024-03-28T12:03:36.200Z,22.30
2024-03-28T12:06:09.834Z,22.34
2024-03-28T12:08:46.204Z,22.38
2024-03-28T12:11:19.943Z,22.44
2024-03-28T12:13:54.165Z,22.45
2024-03-28T12:16:27.200Z,22.52
2024-03-28T12:19:08.466Z,22.60
2024-03-28T12:21:42.106Z,22.61
2024-03-28T12:24:15.782Z,22.61
2024-03-28T12:26:49.327Z,22.68
2024-03-28T12:29:29.820Z,22.64
2024-03-28T12:32:10.144Z,22.61
2024-03-28T12:34:53.298Z,22.60
2024-03-28T12:37:30.001Z,22.64
2024-03-28T12:40:10.686Z,22.67
2024-03-28T12:42:51.375Z,22.63
2024-03-28T12:45:25.718Z,22.58
2024-03-28T12:47:58.824Z,22.59
2024-03-28T12:50:34.049Z,22.60
2024-03-28T12:53:08.165Z,22.59
2024-03-28T12:55:42.246Z,22.55
2024-03-28T12:58:16.579Z,22.49
2024-03-28T13:00:49.389Z,22.49
2024-03-28T13:03:22.932Z,22.47
2024-03-28T13:05:57.631Z,22.43
2024-03-28T13:08:30.892Z,22.39
2024-03-28T13:11:04.786Z,22.40
2024-03-28T13:13:39.436Z,22.41
2024-03-28T13:16:12.684Z,22.41
2024-03-28T13:18:49.390Z,22.41
2024-03-28T13:21:25.554Z,22.41
2024-03-28T13:24:00.179Z,22.41
2024-03-28T13:29:16.668Z,22.44
2024-03-28T13:31:50.534Z,22.43
2024-03-28T13:34:24.987Z,22.45
2024-03-28T13:36:59.385Z,22.47
2024-03-28T13:39:32.592Z,22.46
2024-03-28T13:42:06.326Z,22.49
2024-03-28T13:44:39.427Z,22.54
2024-03-28T13:47:13.502Z,22.61
2024-03-28T13:49:46.850Z,22.67
2024-03-28T13:52:23.968Z,22.71
2024-03-28T13:54:58.229Z,22.72
2024-03-28T13:57:32.413Z,22.72
2024-03-28T14:00:08.573Z,22.67
2024-03-28T14:02:41.954Z,22.63
2024-03-28T14:05:15.123Z,22.61
2024-03-28T14:07:48.479Z,22.57
2024-03-28T14:10:22.869Z,22.53
2024-03-28T14:12:56.276Z,22.51
2024-03-28T14:15:31.233Z,22.47
2024-03-28T14:18:05.043Z,22.42
2024-03-28T14:20:41.145Z,22.34
2024-03-28T14:23:18.231Z,22.16
2024-03-28T14:25:52.208Z,21.99
2024-03-28T14:28:25.600Z,21.82
2024-03-28T14:30:58.736Z,21.68
2024-03-28T14:33:34.335Z,21.61
2024-03-28T14:36:09.663Z,21.56
2024-03-28T14:38:43.530Z,21.51
2024-03-28T14:41:17.531Z,21.41
2024-03-28T14:43:50.924Z,21.31
2024-03-28T14:46:28.489Z,21.18
2024-03-28T14:49:01.926Z,21.06
2024-03-28T14:51:34.844Z,20.96
2024-03-28T14:54:08.472Z,20.84
2024-03-28T14:56:42.295Z,20.73
2024-03-28T14:59:15.230Z,20.62
2024-03-28T15:01:48.076Z,20.47
2024-03-28T15:04:26.902Z,20.32
2024-03-28T15:07:03.336Z,20.17
2024-03-28T15:09:37.013Z,20.03
2024-03-28T15:12:11.084Z,19.88
2024-03-28T15:14:44.473Z,19.73
2024-03-28T15:17:18.455Z,19.57
2024-03-28T15:19:51.519Z,19.40
2024-03-28T15:22:24.760Z,19.22
2024-03-28T15:25:00.830Z,19.08
2024-03-28T15:27:34.204Z,18.95
2024-03-28T15:30:08.325Z,18.84
2024-03-28T15:32:41.281Z,18.71
2024-03-28T15:35:14.765Z,18.57
2024-03-28T15:37:48.126Z,18.46
2024-03-28T15:40:21.794Z,18.34
2024-03-28T15:42:55.491Z,18.20
2024-03-28T15:45:28.626Z,18.05
2024-03-28T15:48:01.772Z,17.94
2024-03-28T15:50:36.882Z,17.85
2024-03-28T15:53:09.726Z,17.76
2024-03-28T15:55:45.403Z,17.66
2024-03-28T15:58:19.825Z,17.57
2024-03-28T16:00:52.810Z,17.48
2024-03-28T16:03:25.975Z,17.40
2024-03-28T16:05:58.958Z,17.33
2024-03-28T16:08:32.177Z,17.24
2024-03-28T16:11:05.140Z,17.16
2024-03-28T16:13:38.165Z,17.08
2024-03-28T16:16:11.573Z,17.00
2024-03-28T16:18:45.228Z,16.93
2024-03-28T16:21:18.087Z,16.86
2024-03-28T16:23:51.484Z,16.80
2024-03-28T16:26:24.619Z,16.74
2024-03-28T16:29:06.724Z,16.67
2024-03-28T16:31:43.831Z,16.61
2024-03-28T16:34:16.854Z,16.54
2024-03-28T16:36:49.738Z,16.47
2024-03-28T16:39:24.783Z,16.41
2024-03-28T16:41:57.767Z,16.36
2024-03-28T16:44:31.013Z,16.33
2024-03-28T16:47:09.572Z,16.28
2024-03-28T16:49:42.651Z,16.24
2024-03-28T16:52:15.927Z,16.20
2024-03-28T16:54:49.037Z,16.17
2024-03-28T16:57:22.104Z,16.13
2024-03-28T16:59:57.876Z,16.08
2024-03-28T17:02:31.352Z,16.03
2024-03-28T17:05:04.347Z,15.99
2024-03-28T17:07:40.666Z,15.95
2024-03-28T17:10:14.929Z,15.91
2024-03-28T17:12:48.024Z,15.89
2024-03-28T17:15:21.095Z,15.88
2024-03-28T17:17:54.584Z,15.83
2024-03-28T17:20:27.518Z,15.74
2024-03-28T17:23:00.441Z,15.66
2024-03-28T17:25:34.757Z,15.59
2024-03-28T17:28:08.518Z,15.53
2024-03-28T17:30:43.707Z,15.48
2024-03-28T17:33:17.677Z,15.44
2024-03-28T17:35:58.697Z,15.39
2024-03-28T17:38:31.683Z,15.35
2024-03-28T17:41:04.902Z,15.31
2024-03-28T17:43:37.908Z,15.27
2024-03-28T17:46:11.037Z,15.22
2024-03-28T17:48:43.756Z,15.16
2024-03-28T17:51:16.597Z,15.11
2024-03-28T17:53:50.604Z,15.07
2024-03-28T17:56:23.347Z,15.04
2024-03-28T17:58:57.219Z,15.02
2024-03-28T18:01:32.875Z,14.99
2024-03-28T18:04:10.622Z,14.98
2024-03-28T18:06:43.568Z,14.95
2024-03-28T18:09:20.803Z,14.93
2024-03-28T18:11:53.660Z,14.89
2024-03-28T18:14:26.977Z,14.87
2024-03-28T18:17:00.278Z,14.83
2024-03-28T18:19:33.700Z,14.79
2024-03-28T18:22:07.095Z,14.75
2024-03-28T18:24:40.763Z,14.74
2024-03-28T18:27:13.574Z,14.71
2024-03-28T18:29:46.548Z,14.68
2024-03-28T18:32:19.827Z,14.65
2024-03-28T18:34:53.029Z,14.61
2024-03-28T18:37:26.150Z,14.58
2024-03-28T18:39:59.246Z,14.53
2024-03-28T18:42:32.546Z,14.49
2024-03-28T18:45:05.948Z,14.44
2024-03-28T18:47:38.982Z,14.40
2024-03-28T18:50:13.023Z,14.35
2024-03-28T18:52:47.215Z,14.31
2024-03-28T18:55:20.574Z,14.26
2024-03-28T18:57:53.820Z,14.21
2024-03-28T19:00:27.547Z,14.17
2024-03-28T19:03:01.469Z,14.11
2024-03-28T19:05:39.231Z,14.07
2024-03-28T19:08:13.282Z,14.02
2024-03-28T19:10:48.052Z,13.96
2024-03-28T19:13:22.299Z,13.88
2024-03-28T19:15:58.060Z,13.81
2024-03-28T19:18:31.888Z,13.78
2024-03-28T19:21:05.691Z,13.75
2024-03-28T19:23:38.970Z,13.72
2024-03-28T19:26:14.289Z,13.69
2024-03-28T19:28:48.228Z,13.65
2024-03-28T19:31:22.994Z,13.60
2024-03-28T19:33:58.035Z,13.55
2024-03-28T19:36:35.223Z,13.50
2024-03-28T19:39:11.652Z,13.45
2024-03-28T19:41:44.763Z,13.41
2024-03-28T19:44:17.669Z,13.36
2024-03-28T19:46:54.939Z,13.32
2024-03-28T19:49:27.857Z,13.29
2024-03-28T19:52:01.051Z,13.25
2024-03-28T19:54:37.889Z,13.19
2024-03-28T19:57:11.077Z,13.15
2024-03-28T19:59:43.966Z,13.10
2024-03-28T20:02:16.867Z,13.05
2024-03-28T20:04:58.808Z,13.00
2024-03-28T20:07:32.911Z,12.94
2024-03-28T20:10:08.003Z,12.89
2024-03-28T20:12:44.051Z,12.84
2024-03-28T20:15:16.908Z,12.80
2024-03-28T20:17:49.898Z,12.75
2024-03-28T20:20:23.383Z,12.71
2024-03-28T20:22:56.355Z,12.66
2024-03-28T20:25:30.229Z,12.63
2024-03-28T20:28:04.608Z,12.59
2024-03-28T20:30:38.166Z,12.55
2024-03-28T20:33:12.036Z,12.51
2024-03-28T20:35:47.690Z,12.47
2024-03-28T20:38:20.512Z,12.44
2024-03-28T20:40:57.326Z,12.40
2024-03-28T20:43:30.246Z,12.38
2024-03-28T20:46:07.883Z,12.36
2024-03-28T20:48:40.727Z,12.33
2024-03-28T20:51:20.026Z,12.31
2024-03-28T20:53:53.217Z,12.27
2024-03-28T20:56:25.966Z,12.25
2024-03-28T20:58:59.653Z,12.22
2024-03-28T21:01:33.172Z,12.21
2024-03-28T21:04:08.897Z,12.19
2024-03-28T21:07:07.686Z,12.15
2024-03-28T21:10:07.705Z,12.10
2024-03-28T21:12:40.824Z,12.02
2024-03-28T21:15:13.583Z,11.98
2024-03-28T21:17:46.377Z,11.95
2024-03-28T21:20:20.041Z,11.92
2024-03-28T21:22:53.768Z,11.88
2024-03-28T21:25:26.533Z,11.85
2024-03-28T21:28:00.899Z,11.82
2024-03-28T21:30:34.866Z,11.78
2024-03-28T21:33:08.317Z,11.75
2024-03-28T21:35:41.710Z,11.72
2024-03-28T21:38:14.581Z,11.66
2024-03-28T21:40:57.000Z,11.62
2024-03-28T21:43:30.331Z,11.58
2024-03-28T21:46:04.179Z,11.54
2024-03-28T21:48:39.061Z,11.48
2024-03-28T21:51:12.075Z,11.44
2024-03-28T21:53:45.089Z,11.41
2024-03-28T21:56:20.981Z,11.38
2024-03-28T21:58:53.663Z,11.36
2024-03-28T22:01:26.663Z,11.33
2024-03-28T22:03:59.454Z,11.29
2024-03-28T22:06:35.345Z,11.22
2024-03-28T22:09:10.068Z,11.19
2024-03-28T22:11:43.718Z,11.15
2024-03-28T22:14:16.647Z,11.12
2024-03-28T22:16:54.479Z,11.09
2024-03-28T22:19:33.889Z,11.04
2024-03-28T22:22:07.178Z,11.00
2024-03-28T22:24:40.285Z,10.96
2024-03-28T22:27:15.292Z,10.94
2024-03-28T22:29:47.982Z,10.92
2024-03-28T22:32:21.062Z,10.90
2024-03-28T22:34:55.688Z,10.89
2024-03-28T22:37:28.823Z,10.86
2024-03-28T22:40:02.146Z,10.83
2024-03-28T22:42:37.102Z,10.80
2024-03-28T22:45:11.834Z,10.78
2024-03-28T22:47:45.140Z,10.75
2024-03-28T22:50:18.653Z,10.76
2024-03-28T22:52:51.562Z,10.73
2024-03-28T22:55:24.904Z,10.71
2024-03-28T22:57:57.842Z,10.68
2024-03-28T23:00:34.650Z,10.63
2024-03-28T23:03:08.410Z,10.59
2024-03-28T23:05:41.338Z,10.55
2024-03-28T23:08:14.711Z,10.49
2024-03-28T23:10:53.549Z,10.46
2024-03-28T23:13:26.799Z,10.45
2024-03-28T23:16:00.059Z,10.43
2024-03-28T23:18:33.312Z,10.42
2024-03-28T23:21:06.936Z,10.40
2024-03-28T23:23:41.416Z,10.38
2024-03-28T23:26:14.413Z,10.35
2024-03-28T23:28:48.668Z,10.32
2024-03-28T23:31:21.378Z,10.28
2024-03-28T23:33:54.824Z,10.25
2024-03-28T23:36:28.222Z,10.22
2024-03-28T23:39:01.642Z,10.19
2024-03-28T23:41:35.124Z,10.17
2024-03-28T23:44:08.630Z,10.14
2024-03-28T23:46:41.395Z,10.12
2024-03-28T23:49:15.273Z,10.10
2024-03-28T23:51:48.128Z,10.06
2024-03-28T23:54:21.887Z,10.01
2024-03-28T23:56:54.546Z,10.00
2024-03-28T23:59:27.900Z,9.99
